createdAt,value
2018-06-05T00:00:01.163Z,18.6
2018-06-05T00:05:01.093Z,18.7
2018-06-05T00:10:01.233Z,18.5
2018-06-05T00:15:01.114Z,18.8
2018-06-05T00:20:01.243Z,19.1
2018-06-05T00:25:01.098Z,19.5
2018-06-05T00:30:01.168Z,19.2
2018-06-05T00:35:01.102Z,19.4
2018-06-05T00:40:01.229Z,19.5
2018-06-05T00:45:01.147Z,19.9
2018-06-05T00:50:01.199Z,19.8
2018-06-05T00:55:01.109Z,19.7
2018-06-05T01:00:01.166Z,19.4
2018-06-05T01:05:01.123Z,18.7
2018-06-05T01:10:01.100Z,17.4
2018-06-05T01:15:01.101Z,16.7
2018-06-05T01:20:01.205Z,15.8
2018-06-05T01:25:01.051Z,16.3
2018-06-05T01:30:01.132Z,15.8
2018-06-05T01:35:01.120Z,15.6
2018-06-05T01:40:01.154Z,15.9
2018-06-05T01:45:01.087Z,15.9
2018-06-05T01:50:01.186Z,15.0
2018-06-05T01:55:01.056Z,14.3
2018-06-05T02:00:01.156Z,14.2
2018-06-05T02:05:01.085Z,14.0
2018-06-05T02:10:01.183Z,14.7
2018-06-05T02:15:01.128Z,14.0
2018-06-05T02:25:01.096Z,14.3
2018-06-05T02:30:01.095Z,14.2
2018-06-05T02:35:01.106Z,13.5
2018-06-05T02:40:01.126Z,13.2
2018-06-05T02:45:01.095Z,13.1
2018-06-05T02:50:01.193Z,13.0
2018-06-05T02:55:01.094Z,12.6
2018-06-05T03:00:01.232Z,12.8
2018-06-05T03:05:01.111Z,13.1
2018-06-05T03:10:01.230Z,13.0
2018-06-05T03:15:01.130Z,12.7
2018-06-05T03:25:01.168Z,11.9
2018-06-05T03:30:06.385Z,12.0
2018-06-05T03:35:02.219Z,11.9
2018-06-05T03:40:01.184Z,11.8
2018-06-05T03:45:01.089Z,11.8
2018-06-05T04:00:01.301Z,11.8
2018-06-05T04:05:01.157Z,12.0
2018-06-05T04:10:01.194Z,11.6
2018-06-05T04:15:01.162Z,11.6
2018-06-05T04:20:01.156Z,11.0
2018-06-05T04:25:01.144Z,10.3
2018-06-05T04:30:01.136Z,10.0
2018-06-05T04:35:02.218Z,9.6
2018-06-05T04:40:01.204Z,9.2
2018-06-05T04:45:01.138Z,9.7
2018-06-05T04:50:01.293Z,9.5
2018-06-05T04:55:01.144Z,9.3
2018-06-05T05:00:01.270Z,9.3
2018-06-05T05:05:01.146Z,9.3
2018-06-05T05:10:01.203Z,9.0
2018-06-05T05:15:01.137Z,9.5
2018-06-05T05:20:01.204Z,9.2
2018-06-05T05:25:01.138Z,9.0
2018-06-05T05:30:06.147Z,8.9
2018-06-05T05:35:01.137Z,8.7
2018-06-05T05:40:01.270Z,8.6
2018-06-05T05:45:01.150Z,8.7
2018-06-05T05:50:01.299Z,9.4
2018-06-05T05:55:01.146Z,9.1
2018-06-05T06:00:01.211Z,9.1
2018-06-05T06:05:02.172Z,8.9
2018-06-05T06:10:01.276Z,9.0
2018-06-05T06:15:01.169Z,8.5
2018-06-05T06:20:01.216Z,8.8
2018-06-05T06:30:01.218Z,9.2
2018-06-05T06:35:01.246Z,9.8
2018-06-05T06:40:01.339Z,9.9
2018-06-05T06:45:01.202Z,10.0
2018-06-05T06:50:01.280Z,9.8
2018-06-05T06:55:01.203Z,9.7
2018-06-05T07:00:01.273Z,9.1
2018-06-05T07:05:01.191Z,9.4
2018-06-05T07:10:01.257Z,9.6
2018-06-05T07:15:01.189Z,10.0
2018-06-05T07:20:01.269Z,10.0
2018-06-05T07:25:01.136Z,10.4
2018-06-05T07:30:01.238Z,10.2
2018-06-05T07:35:01.166Z,10.5
2018-06-05T07:45:01.241Z,11.1
2018-06-05T07:55:01.211Z,11.3
2018-06-05T08:00:01.242Z,11.2
2018-06-05T08:05:02.328Z,11.5
2018-06-05T08:10:01.187Z,10.9
2018-06-05T08:15:01.181Z,11.2
2018-06-05T08:20:01.412Z,11.4
2018-06-05T08:25:01.224Z,11.9
2018-06-05T08:30:06.259Z,11.7
2018-06-05T08:40:01.256Z,11.5
2018-06-05T08:45:01.215Z,11.2
2018-06-05T08:50:01.297Z,10.6
2018-06-05T08:55:01.194Z,10.9
2018-06-05T09:00:06.327Z,11.3
2018-06-05T09:05:01.197Z,11.6
2018-06-05T09:10:01.255Z,11.8
2018-06-05T09:15:01.266Z,12.9
2018-06-05T09:20:01.357Z,12.3
2018-06-05T09:25:01.227Z,12.4
2018-06-05T09:30:01.357Z,12.2
2018-06-05T09:35:01.244Z,12.0
2018-06-05T10:00:01.357Z,14.2
2018-06-05T10:05:01.329Z,15.1
2018-06-05T10:10:01.323Z,15.5
2018-06-05T10:15:02.426Z,15.7
2018-06-05T10:20:01.318Z,16.1
2018-06-05T10:25:01.253Z,17.0
2018-06-05T10:30:01.395Z,17.2
2018-06-05T10:35:01.328Z,17.9
2018-06-05T10:40:01.337Z,18.1
2018-06-05T10:45:01.331Z,18.2
2018-06-05T10:50:01.294Z,18.2
2018-06-05T11:00:01.264Z,19.2
2018-06-05T11:05:01.240Z,19.6
2018-06-05T11:10:01.332Z,20.0
2018-06-05T11:15:01.232Z,20.2
2018-06-05T11:20:01.489Z,19.6
2018-06-05T11:25:01.281Z,19.2
2018-06-05T11:30:06.445Z,18.8
2018-06-05T11:35:01.277Z,18.5
2018-06-05T11:40:01.404Z,17.9
2018-06-05T11:45:02.726Z,18.0
2018-06-05T11:50:01.449Z,17.3
2018-06-05T12:00:01.276Z,16.2
2018-06-05T12:05:01.297Z,16.6
2018-06-05T12:10:01.416Z,16.5
2018-06-05T12:15:01.296Z,16.7
2018-06-05T12:20:01.411Z,16.3
2018-06-05T12:25:01.276Z,16.6
2018-06-05T12:30:01.313Z,15.5
2018-06-05T12:35:06.258Z,14.7
2018-06-05T12:40:01.411Z,13.8
2018-06-05T12:45:01.299Z,13.1
2018-06-05T12:50:01.392Z,12.8
2018-06-05T12:55:01.291Z,12.4
2018-06-05T13:00:02.964Z,12.2
2018-06-05T13:05:01.334Z,12.4
2018-06-05T13:10:01.393Z,12.7
2018-06-05T13:15:01.330Z,13.1
2018-06-05T13:25:01.310Z,13.2
2018-06-05T13:30:01.650Z,13.0
2018-06-05T13:35:01.283Z,12.8
2018-06-05T13:40:01.435Z,12.4
2018-06-05T13:45:01.250Z,12.9
2018-06-05T13:50:01.404Z,12.9
2018-06-05T13:55:01.303Z,12.8
2018-06-05T14:00:01.405Z,12.3
2018-06-05T14:15:06.421Z,11.8
2018-06-05T14:20:01.383Z,12.0
2018-06-05T14:25:01.333Z,12.2
2018-06-05T14:30:01.372Z,11.6
2018-06-05T14:40:01.374Z,11.6
2018-06-05T14:45:01.393Z,11.9
2018-06-05T14:50:01.420Z,12.0
2018-06-05T14:55:01.332Z,12.1
2018-06-05T15:00:01.580Z,11.6
2018-06-05T15:05:01.389Z,10.8
2018-06-05T15:10:01.374Z,9.5
2018-06-05T15:15:01.344Z,9.3
2018-06-05T15:20:02.597Z,9.0
2018-06-05T15:25:01.333Z,8.6
2018-06-05T15:30:01.311Z,8.6
2018-06-05T15:35:01.345Z,9.0
2018-06-05T15:40:01.408Z,8.8
2018-06-05T15:45:01.308Z,8.8
2018-06-05T15:50:01.537Z,8.8
2018-06-05T16:00:01.347Z,8.4
2018-06-05T16:05:01.341Z,7.8
2018-06-05T16:10:01.381Z,7.8
2018-06-05T16:15:01.315Z,7.9
2018-06-05T16:20:01.506Z,8.3
2018-06-05T16:25:01.321Z,8.9
2018-06-05T16:30:01.318Z,9.5
2018-06-05T16:35:01.641Z,9.6
2018-06-05T16:40:01.323Z,9.6
2018-06-05T16:45:01.321Z,9.3
2018-06-05T16:50:01.362Z,9.0
2018-06-05T16:55:01.328Z,8.8
2018-06-05T17:00:01.331Z,8.9
2018-06-05T17:05:01.394Z,9.2
2018-06-05T17:10:01.390Z,10.2
2018-06-05T17:15:01.393Z,11.1
2018-06-05T17:20:01.347Z,11.9
2018-06-05T17:25:01.397Z,13.1
2018-06-05T17:30:01.413Z,14.0
2018-06-05T17:35:01.393Z,15.0
2018-06-05T17:40:02.555Z,16.2
2018-06-05T17:45:01.339Z,17.7
2018-06-05T17:50:01.365Z,18.4
2018-06-05T17:55:01.393Z,19.8
2018-06-05T18:00:01.547Z,20.4
2018-06-05T18:05:01.372Z,20.8
2018-06-05T18:15:01.400Z,21.6
2018-06-05T18:20:01.494Z,22.0
2018-06-05T18:25:01.349Z,22.2
2018-06-05T18:30:01.411Z,22.3
2018-06-05T18:35:01.348Z,22.6
2018-06-05T18:40:01.728Z,22.4
2018-06-05T18:45:01.357Z,21.8
2018-06-05T18:50:01.448Z,21.6
2018-06-05T18:55:01.444Z,21.0
2018-06-05T19:00:01.479Z,19.8
2018-06-05T19:05:01.351Z,19.0
2018-06-05T19:10:01.545Z,17.9
2018-06-05T19:15:06.363Z,16.5
2018-06-05T19:20:01.489Z,16.0
2018-06-05T19:25:01.351Z,15.0
2018-06-05T19:30:06.420Z,14.3
2018-06-05T19:35:06.349Z,14.0
2018-06-05T19:45:01.428Z,13.4
2018-06-05T19:50:01.528Z,12.9
2018-06-05T19:55:06.422Z,12.2
2018-06-05T20:00:01.415Z,11.1
2018-06-05T20:05:01.354Z,10.2
2018-06-05T20:10:01.418Z,9.4
2018-06-05T20:15:01.352Z,8.8
2018-06-05T20:20:01.455Z,8.4
2018-06-05T20:25:01.363Z,8.3
2018-06-05T20:30:01.426Z,8.0
2018-06-05T20:35:02.449Z,7.8
2018-06-05T20:40:01.412Z,7.8
2018-06-05T20:45:01.398Z,7.6
2018-06-05T20:50:01.436Z,7.6
2018-06-05T20:55:01.406Z,7.5
2018-06-05T21:00:02.934Z,7.4
2018-06-05T21:05:01.414Z,7.7
2018-06-05T21:10:01.514Z,7.7
2018-06-05T21:15:01.478Z,7.8
2018-06-05T21:25:06.484Z,8.6
2018-06-05T21:30:01.503Z,9.3
2018-06-05T21:35:01.385Z,9.4
2018-06-05T21:40:01.417Z,10.0
2018-06-05T21:45:01.429Z,10.5
2018-06-05T21:50:01.550Z,10.6
2018-06-05T21:55:01.429Z,10.2
2018-06-05T22:00:01.425Z,10.0
2018-06-05T22:05:01.745Z,9.4
2018-06-05T22:10:01.446Z,9.0
2018-06-05T22:15:01.405Z,8.5
2018-06-05T22:20:06.559Z,8.3
2018-06-05T22:25:01.427Z,8.1
2018-06-05T22:30:01.625Z,8.1
2018-06-05T22:35:01.409Z,8.1
2018-06-05T22:40:02.179Z,8.5
2018-06-05T22:45:01.416Z,8.8
2018-06-05T22:50:01.963Z,9.4
2018-06-05T22:55:01.411Z,10.0
2018-06-05T23:00:01.483Z,10.3
2018-06-05T23:05:01.440Z,9.6
2018-06-05T23:10:01.542Z,9.4
2018-06-05T23:15:01.478Z,9.6
2018-06-05T23:20:01.482Z,9.1
2018-06-05T23:25:01.417Z,9.4
2018-06-05T23:30:01.565Z,9.6
2018-06-05T23:35:01.409Z,10.1
2018-06-05T23:40:06.484Z,9.3
2018-06-05T23:45:01.406Z,8.9
2018-06-05T23:50:01.579Z,8.5
2018-06-05T23:55:01.390Z,8.9
